createdAt,value
2023-03-11T00:01:20.919Z,70.80
2023-03-11T00:06:22.763Z,71.34
2023-03-11T00:11:43.839Z,71.71
2023-03-11T00:16:45.863Z,72.22
2023-03-11T00:21:47.708Z,72.29
2023-03-11T00:26:49.457Z,72.17
2023-03-11T00:31:53.243Z,71.87
2023-03-11T00:36:55.858Z,71.57
2023-03-11T00:42:01.441Z,71.41
2023-03-11T00:47:03.709Z,71.13
2023-03-11T00:52:09.016Z,70.86
2023-03-11T00:57:10.787Z,70.42
2023-03-11T01:02:12.896Z,70.17
2023-03-11T01:07:14.663Z,69.78
2023-03-11T01:12:16.405Z,69.38
2023-03-11T01:17:18.132Z,68.85
2023-03-11T01:22:19.946Z,68.61
2023-03-11T01:27:21.854Z,68.81
2023-03-11T01:32:23.652Z,68.78
2023-03-11T01:37:25.622Z,68.42
2023-03-11T01:42:27.440Z,68.01
2023-03-11T01:47:38.768Z,67.44
2023-03-11T01:52:43.583Z,67.22
2023-03-11T01:57:47.665Z,67.28
2023-03-11T02:02:56.329Z,67.55
2023-03-11T02:07:58.522Z,67.07
2023-03-11T02:13:04.496Z,66.60
2023-03-11T02:18:08.010Z,65.78
2023-03-11T02:23:12.121Z,65.23
2023-03-11T02:28:16.636Z,65.43
2023-03-11T02:33:19.375Z,65.90
2023-03-11T02:38:21.691Z,66.16
2023-03-11T02:43:40.755Z,66.38
2023-03-11T02:48:43.646Z,67.27
2023-03-11T02:53:51.038Z,67.65
2023-03-11T02:58:53.455Z,67.87
2023-03-11T03:03:55.538Z,68.18
2023-03-11T03:08:57.654Z,68.43
2023-03-11T03:14:00.274Z,68.68
2023-03-11T03:19:02.178Z,69.15
2023-03-11T03:24:04.586Z,69.68
2023-03-11T03:29:07.402Z,70.60
2023-03-11T03:34:09.573Z,71.29
2023-03-11T03:39:11.937Z,72.04
2023-03-11T03:44:13.881Z,73.16
2023-03-11T03:49:15.804Z,73.88
2023-03-11T03:54:19.338Z,75.03
2023-03-11T03:59:21.193Z,75.98
2023-03-11T04:04:27.085Z,76.92
2023-03-11T04:09:29.347Z,78.06
2023-03-11T04:14:31.307Z,78.40
2023-03-11T04:19:34.052Z,79.43
2023-03-11T04:24:36.304Z,79.89
2023-03-11T04:29:38.676Z,80.12
2023-03-11T04:34:42.063Z,80.70
2023-03-11T04:39:44.847Z,81.10
2023-03-11T04:44:46.747Z,81.07
2023-03-11T04:49:48.594Z,81.12
2023-03-11T04:54:50.574Z,81.05
2023-03-11T04:59:52.901Z,81.21
2023-03-11T05:06:14.418Z,81.88
2023-03-11T05:11:16.538Z,82.81
2023-03-11T05:16:19.288Z,83.70
2023-03-11T05:21:21.476Z,84.73
2023-03-11T05:26:23.259Z,85.66
2023-03-11T05:31:25.062Z,86.47
2023-03-11T05:36:26.990Z,86.87
2023-03-11T05:41:28.971Z,87.38
2023-03-11T05:46:30.857Z,87.41
2023-03-11T05:51:32.929Z,87.11
2023-03-11T05:56:34.865Z,85.48
2023-03-11T06:01:37.776Z,85.76
2023-03-11T06:06:44.176Z,86.42
2023-03-11T06:11:46.392Z,87.11
2023-03-11T06:16:50.753Z,87.44
2023-03-11T06:21:54.147Z,87.68
2023-03-11T06:26:56.383Z,87.50
2023-03-11T06:31:59.637Z,87.55
2023-03-11T06:37:01.452Z,87.65
2023-03-11T06:42:03.858Z,87.88
2023-03-11T06:47:06.042Z,88.08
2023-03-11T06:52:09.125Z,87.98
2023-03-11T06:57:11.419Z,87.83
2023-03-11T07:02:15.028Z,87.55
2023-03-11T07:07:17.605Z,87.30
2023-03-11T07:12:23.126Z,87.08
2023-03-11T07:17:26.882Z,87.02
2023-03-11T07:22:30.513Z,86.90
2023-03-11T07:27:32.314Z,86.97
2023-03-11T07:32:34.136Z,87.31
2023-03-11T07:37:35.820Z,87.44
2023-03-11T07:42:37.463Z,87.13
2023-03-11T07:47:40.018Z,86.87
2023-03-11T07:52:41.765Z,86.94
2023-03-11T07:57:43.748Z,87.15
2023-03-11T08:02:45.557Z,87.22
2023-03-11T08:07:47.247Z,87.09
2023-03-11T08:12:48.880Z,86.97
2023-03-11T08:17:50.594Z,86.87
2023-03-11T08:22:57.968Z,86.99
2023-03-11T08:28:00.242Z,87.47
2023-03-11T08:48:00.247Z,87.14
2023-03-11T08:53:03.298Z,87.07
2023-03-11T08:58:05.108Z,88.01
2023-03-11T09:03:06.925Z,88.68
2023-03-11T10:08:35.006Z,86.54
2023-03-11T10:13:50.184Z,87.25
2023-03-11T10:19:02.806Z,87.65
2023-03-11T10:24:17.657Z,87.61
2023-03-11T10:29:56.693Z,88.03
2023-03-11T10:35:19.361Z,88.23
2023-03-11T10:40:36.003Z,88.25
2023-03-11T10:45:41.585Z,88.35
2023-03-11T10:50:52.631Z,88.06
2023-03-11T10:55:56.993Z,88.29
2023-03-11T11:06:53.715Z,88.08
2023-03-11T11:12:03.310Z,87.82
2023-03-11T11:17:05.090Z,88.33
2023-03-11T11:22:17.290Z,88.78
2023-03-11T11:27:28.705Z,89.37
2023-03-11T11:32:30.577Z,90.12
2023-03-11T11:37:36.852Z,89.07
2023-03-11T11:42:41.445Z,88.41
2023-03-11T11:47:48.745Z,88.59
2023-03-11T11:52:56.975Z,88.75
2023-03-11T11:57:58.780Z,89.17
2023-03-11T12:03:33.616Z,88.69
2023-03-11T12:09:05.521Z,89.95
2023-03-11T12:14:25.257Z,90.26
2023-03-11T12:19:39.027Z,89.36
2023-03-11T12:24:49.696Z,88.35
2023-03-11T12:29:58.029Z,88.18
2023-03-11T12:35:10.940Z,87.66
2023-03-11T12:40:48.396Z,87.54
2023-03-11T12:45:53.403Z,87.91
2023-03-11T12:50:57.536Z,87.34
2023-03-11T12:56:19.651Z,87.66
2023-03-11T13:01:29.393Z,87.68
2023-03-11T13:06:53.659Z,87.15
2023-03-11T13:11:55.497Z,87.04
2023-03-11T13:17:18.045Z,86.79
2023-03-11T13:22:43.518Z,86.61
2023-03-11T13:27:49.448Z,85.53
2023-03-11T13:33:04.358Z,84.55
2023-03-11T13:38:18.517Z,84.28
2023-03-11T13:43:21.636Z,84.56
2023-03-11T13:48:32.108Z,85.32
2023-03-11T13:53:57.088Z,86.00
2023-03-11T13:59:22.210Z,85.38
2023-03-11T14:04:28.448Z,84.66
2023-03-11T14:09:30.463Z,83.37
2023-03-11T14:14:47.839Z,81.61
2023-03-11T14:20:25.553Z,82.83
2023-03-11T14:25:31.256Z,81.99
2023-03-11T14:30:34.795Z,82.20
2023-03-11T14:35:39.423Z,82.16
2023-03-11T14:40:42.194Z,82.59
2023-03-11T14:45:44.293Z,82.44
2023-03-11T14:50:49.447Z,82.99
2023-03-11T14:55:57.674Z,83.78
2023-03-11T15:01:17.249Z,84.85
2023-03-11T15:06:26.655Z,84.89
2023-03-11T15:11:29.027Z,85.22
2023-03-11T15:16:33.950Z,85.86
2023-03-11T15:21:35.989Z,86.01
2023-03-11T15:26:53.987Z,86.22
2023-03-11T15:31:57.340Z,86.62
2023-03-11T15:37:02.513Z,86.86
2023-03-11T15:42:07.189Z,87.01
2023-03-11T15:47:17.861Z,86.98
2023-03-11T15:52:20.341Z,87.23
2023-03-11T15:57:28.343Z,87.35
2023-03-11T16:02:32.190Z,86.19
2023-03-11T16:07:39.915Z,84.46
2023-03-11T16:12:45.162Z,82.76
2023-03-11T16:17:50.093Z,82.20
2023-03-11T16:22:58.478Z,81.52
2023-03-11T16:28:01.333Z,80.73
2023-03-11T16:33:05.018Z,81.06
2023-03-11T16:38:08.191Z,80.46
2023-03-11T16:43:13.654Z,79.37
2023-03-11T16:48:15.407Z,78.50
2023-03-11T16:53:17.814Z,78.34
2023-03-11T16:58:19.978Z,79.02
2023-03-11T17:03:22.288Z,79.78
2023-03-11T17:08:25.285Z,80.35
2023-03-11T17:13:27.375Z,79.13
2023-03-11T17:18:29.384Z,79.04
2023-03-11T17:23:31.103Z,78.48
2023-03-11T17:28:35.100Z,78.11
2023-03-11T17:33:36.887Z,78.80
2023-03-11T17:38:38.685Z,78.80
2023-03-11T17:43:41.487Z,78.83
2023-03-11T17:48:45.794Z,79.32
2023-03-11T17:53:48.913Z,79.16
2023-03-11T17:58:51.412Z,79.46
2023-03-11T18:03:53.637Z,79.40
2023-03-11T18:08:55.439Z,79.35
2023-03-11T18:13:58.241Z,79.64
2023-03-11T18:18:59.964Z,80.02
2023-03-11T18:24:01.821Z,79.60
2023-03-11T18:29:03.914Z,79.42
2023-03-11T18:34:12.273Z,79.30
2023-03-11T18:39:14.423Z,79.23
2023-03-11T18:44:16.408Z,78.57
2023-03-11T18:49:18.119Z,78.41
2023-03-11T18:54:20.034Z,78.38
2023-03-11T18:59:21.738Z,78.42
2023-03-11T19:04:24.998Z,78.14
2023-03-11T19:09:26.705Z,77.98
2023-03-11T19:14:28.584Z,78.11
2023-03-11T19:19:31.708Z,78.12
2023-03-11T19:24:33.440Z,78.37
2023-03-11T19:29:35.258Z,77.63
2023-03-11T19:34:37.165Z,77.13
2023-03-11T19:39:39.051Z,78.48
2023-03-11T19:44:40.898Z,78.50
2023-03-11T19:49:42.686Z,78.17
2023-03-11T19:54:44.479Z,77.83
2023-03-11T19:59:46.265Z,77.47
2023-03-11T20:04:48.002Z,77.35
2023-03-11T20:09:49.900Z,77.29
2023-03-11T20:14:51.755Z,77.61
2023-03-11T20:19:53.527Z,77.84
2023-03-11T20:24:55.326Z,78.19
2023-03-11T20:29:57.155Z,78.30
2023-03-11T20:34:59.047Z,78.22
2023-03-11T20:40:00.975Z,78.08
2023-03-11T20:45:02.867Z,78.68
2023-03-11T20:50:05.931Z,79.16
2023-03-11T20:55:10.234Z,79.49
2023-03-11T21:00:13.672Z,79.96
2023-03-11T21:05:15.511Z,80.26
2023-03-11T21:10:18.045Z,80.46
2023-03-11T21:15:20.649Z,80.81
2023-03-11T21:20:23.904Z,81.21
2023-03-11T21:25:25.703Z,81.69
2023-03-11T21:30:27.454Z,81.90
2023-03-11T21:35:29.375Z,82.23
2023-03-11T21:40:31.245Z,82.47
2023-03-11T21:45:33.090Z,82.58
2023-03-11T21:50:36.179Z,82.48
2023-03-11T21:55:41.361Z,82.54
2023-03-11T22:00:43.559Z,82.24
2023-03-11T22:05:45.457Z,82.17
2023-03-11T22:10:48.144Z,82.23
2023-03-11T22:16:06.723Z,82.02
2023-03-11T22:21:10.442Z,82.19
2023-03-11T22:26:14.177Z,81.59
2023-03-11T22:31:18.491Z,81.43
2023-03-11T22:36:20.271Z,81.20
2023-03-11T22:41:27.611Z,81.14
2023-03-11T22:46:30.376Z,81.27
2023-03-11T22:51:33.997Z,80.99
2023-03-11T22:56:39.930Z,81.12
2023-03-11T23:01:41.710Z,80.00
2023-03-11T23:06:43.394Z,80.48
2023-03-11T23:11:45.093Z,80.39
2023-03-11T23:16:49.975Z,79.73
2023-03-11T23:21:51.740Z,79.46
2023-03-11T23:26:53.447Z,79.48
2023-03-11T23:31:55.145Z,79.55
2023-03-11T23:36:56.862Z,79.28
2023-03-11T23:41:58.531Z,79.20
2023-03-11T23:47:00.223Z,79.11
2023-03-11T23:52:01.876Z,79.02
2023-03-11T23:57:03.989Z,78.93
